sensor_id;sensor_type;location;lat;lon;timestamp;P1;durP1;ratioP1;P2;durP2;ratioP2
3922;SDS011;1976;51.694;6.256;2022-11-20T00:01:18;18.33;;;8.90;;
3922;SDS011;1976;51.694;6.256;2022-11-20T00:03:45;13.80;;;8.67;;
3922;SDS011;1976;51.694;6.256;2022-11-20T00:06:12;14.67;;;8.63;;
3922;SDS011;1976;51.694;6.256;2022-11-20T00:08:39;15.57;;;8.40;;
3922;SDS011;1976;51.694;6.256;2022-11-20T00:11:06;14.17;;;8.50;;
3922;SDS011;1976;51.694;6.256;2022-11-20T00:13:32;16.53;;;10.63;;
3922;SDS011;1976;51.694;6.256;2022-11-20T00:16:00;18.30;;;9.30;;
3922;SDS011;1976;51.694;6.256;2022-11-20T00:18:26;13.80;;;9.23;;
3922;SDS011;1976;51.694;6.256;2022-11-20T00:20:52;16.30;;;8.70;;
3922;SDS011;1976;51.694;6.256;2022-11-20T00:23:19;18.87;;;8.87;;
3922;SDS011;1976;51.694;6.256;2022-11-20T00:25:45;15.30;;;9.40;;
3922;SDS011;1976;51.694;6.256;2022-11-20T00:28:11;18.53;;;8.53;;
3922;SDS011;1976;51.694;6.256;2022-11-20T00:30:37;23.03;;;10.50;;
3922;SDS011;1976;51.694;6.256;2022-11-20T00:33:03;18.77;;;9.70;;
3922;SDS011;1976;51.694;6.256;2022-11-20T00:35:29;15.70;;;8.20;;
3922;SDS011;1976;51.694;6.256;2022-11-20T00:37:55;21.37;;;9.47;;
3922;SDS011;1976;51.694;6.256;2022-11-20T00:40:21;15.03;;;7.63;;
3922;SDS011;1976;51.694;6.256;2022-11-20T00:42:47;17.03;;;8.40;;
3922;SDS011;1976;51.694;6.256;2022-11-20T00:45:13;17.20;;;9.70;;
3922;SDS011;1976;51.694;6.256;2022-11-20T00:47:39;10.90;;;7.57;;
3922;SDS011;1976;51.694;6.256;2022-11-20T00:50:05;12.20;;;8.13;;
3922;SDS011;1976;51.694;6.256;2022-11-20T00:52:31;13.17;;;7.40;;
3922;SDS011;1976;51.694;6.256;2022-11-20T00:54:57;13.87;;;7.97;;
3922;SDS011;1976;51.694;6.256;2022-11-20T00:57:23;17.70;;;9.23;;
3922;SDS011;1976;51.694;6.256;2022-11-20T00:59:49;13.53;;;8.00;;
3922;SDS011;1976;51.694;6.256;2022-11-20T01:02:15;11.20;;;8.23;;
3922;SDS011;1976;51.694;6.256;2022-11-20T01:04:41;16.47;;;9.33;;
3922;SDS011;1976;51.694;6.256;2022-11-20T01:07:07;18.97;;;8.87;;
3922;SDS011;1976;51.694;6.256;2022-11-20T01:09:33;19.63;;;9.70;;
3922;SDS011;1976;51.694;6.256;2022-11-20T01:11:59;14.80;;;8.70;;
3922;SDS011;1976;51.694;6.256;2022-11-20T01:14:25;17.40;;;9.37;;
3922;SDS011;1976;51.694;6.256;2022-11-20T01:16:52;16.50;;;9.83;;
3922;SDS011;1976;51.694;6.256;2022-11-20T01:19:21;14.93;;;10.00;;
3922;SDS011;1976;51.694;6.256;2022-11-20T01:21:48;14.70;;;8.60;;
3922;SDS011;1976;51.694;6.256;2022-11-20T01:24:16;13.60;;;7.97;;
3922;SDS011;1976;51.694;6.256;2022-11-20T01:26:43;17.10;;;8.97;;
3922;SDS011;1976;51.694;6.256;2022-11-20T01:29:13;12.90;;;9.30;;
3922;SDS011;1976;51.694;6.256;2022-11-20T01:31:40;14.53;;;8.90;;
3922;SDS011;1976;51.694;6.256;2022-11-20T01:34:07;17.10;;;8.57;;
3922;SDS011;1976;51.694;6.256;2022-11-20T01:36:35;16.10;;;9.00;;
3922;SDS011;1976;51.694;6.256;2022-11-20T01:39:03;17.10;;;9.27;;
3922;SDS011;1976;51.694;6.256;2022-11-20T01:41:30;16.90;;;9.87;;
3922;SDS011;1976;51.694;6.256;2022-11-20T01:44:16;12.83;;;8.43;;
3922;SDS011;1976;51.694;6.256;2022-11-20T01:46:45;13.57;;;8.90;;
3922;SDS011;1976;51.694;6.256;2022-11-20T01:51:49;14.97;;;8.37;;
3922;SDS011;1976;51.694;6.256;2022-11-20T01:54:17;15.00;;;9.30;;
3922;SDS011;1976;51.694;6.256;2022-11-20T01:56:45;12.90;;;7.97;;
3922;SDS011;1976;51.694;6.256;2022-11-20T01:59:13;14.40;;;8.70;;
3922;SDS011;1976;51.694;6.256;2022-11-20T02:01:40;16.67;;;10.07;;
3922;SDS011;1976;51.694;6.256;2022-11-20T02:04:06;20.60;;;11.20;;
3922;SDS011;1976;51.694;6.256;2022-11-20T02:06:39;12.90;;;7.97;;
3922;SDS011;1976;51.694;6.256;2022-11-20T02:09:06;13.50;;;8.13;;
3922;SDS011;1976;51.694;6.256;2022-11-20T02:11:32;13.57;;;8.57;;
3922;SDS011;1976;51.694;6.256;2022-11-20T02:13:58;13.77;;;8.53;;
3922;SDS011;1976;51.694;6.256;2022-11-20T02:16:25;15.07;;;9.40;;
3922;SDS011;1976;51.694;6.256;2022-11-20T02:18:53;14.73;;;8.50;;
3922;SDS011;1976;51.694;6.256;2022-11-20T02:24:24;15.90;;;8.17;;
3922;SDS011;1976;51.694;6.256;2022-11-20T02:26:52;13.30;;;7.73;;
3922;SDS011;1976;51.694;6.256;2022-11-20T02:29:31;14.60;;;9.00;;
3922;SDS011;1976;51.694;6.256;2022-11-20T02:31:57;13.13;;;7.90;;
3922;SDS011;1976;51.694;6.256;2022-11-20T02:34:24;16.30;;;9.77;;
3922;SDS011;1976;51.694;6.256;2022-11-20T02:36:50;14.40;;;8.33;;
3922;SDS011;1976;51.694;6.256;2022-11-20T02:39:17;19.20;;;10.70;;
3922;SDS011;1976;51.694;6.256;2022-11-20T02:41:45;15.23;;;9.20;;
3922;SDS011;1976;51.694;6.256;2022-11-20T02:44:11;19.10;;;10.50;;
3922;SDS011;1976;51.694;6.256;2022-11-20T02:46:37;16.20;;;9.60;;
3922;SDS011;1976;51.694;6.256;2022-11-20T02:49:03;14.57;;;8.60;;
3922;SDS011;1976;51.694;6.256;2022-11-20T02:51:30;15.50;;;9.53;;
3922;SDS011;1976;51.694;6.256;2022-11-20T02:53:56;14.33;;;8.77;;
3922;SDS011;1976;51.694;6.256;2022-11-20T02:56:22;16.57;;;9.10;;
3922;SDS011;1976;51.694;6.256;2022-11-20T02:58:48;21.13;;;9.30;;
3922;SDS011;1976;51.694;6.256;2022-11-20T03:01:14;13.97;;;9.10;;
3922;SDS011;1976;51.694;6.256;2022-11-20T03:03:40;14.33;;;9.30;;
3922;SDS011;1976;51.694;6.256;2022-11-20T03:06:06;13.63;;;8.17;;
3922;SDS011;1976;51.694;6.256;2022-11-20T03:08:33;19.90;;;9.57;;
3922;SDS011;1976;51.694;6.256;2022-11-20T03:11:06;13.93;;;9.03;;
3922;SDS011;1976;51.694;6.256;2022-11-20T03:13:32;16.17;;;9.10;;
3922;SDS011;1976;51.694;6.256;2022-11-20T03:16:04;16.40;;;8.47;;
3922;SDS011;1976;51.694;6.256;2022-11-20T03:18:30;13.67;;;7.97;;
3922;SDS011;1976;51.694;6.256;2022-11-20T03:20:57;12.07;;;7.60;;
3922;SDS011;1976;51.694;6.256;2022-11-20T03:23:23;15.37;;;8.43;;
3922;SDS011;1976;51.694;6.256;2022-11-20T03:25:49;18.30;;;7.90;;
3922;SDS011;1976;51.694;6.256;2022-11-20T03:28:15;14.50;;;8.90;;
3922;SDS011;1976;51.694;6.256;2022-11-20T03:30:41;17.50;;;9.30;;
3922;SDS011;1976;51.694;6.256;2022-11-20T03:33:07;18.40;;;8.70;;
3922;SDS011;1976;51.694;6.256;2022-11-20T03:35:33;15.73;;;8.67;;
3922;SDS011;1976;51.694;6.256;2022-11-20T03:37:59;17.70;;;8.53;;
3922;SDS011;1976;51.694;6.256;2022-11-20T03:40:25;17.13;;;9.50;;
3922;SDS011;1976;51.694;6.256;2022-11-20T03:42:51;16.53;;;9.80;;
3922;SDS011;1976;51.694;6.256;2022-11-20T03:45:18;12.40;;;8.93;;
3922;SDS011;1976;51.694;6.256;2022-11-20T03:47:44;15.57;;;8.73;;
3922;SDS011;1976;51.694;6.256;2022-11-20T03:50:11;17.63;;;10.00;;
3922;SDS011;1976;51.694;6.256;2022-11-20T03:52:38;14.20;;;8.13;;
3922;SDS011;1976;51.694;6.256;2022-11-20T03:55:05;12.60;;;9.33;;
3922;SDS011;1976;51.694;6.256;2022-11-20T03:57:31;15.83;;;9.80;;
3922;SDS011;1976;51.694;6.256;2022-11-20T03:59:57;17.23;;;9.93;;
3922;SDS011;1976;51.694;6.256;2022-11-20T04:02:23;16.13;;;8.83;;
3922;SDS011;1976;51.694;6.256;2022-11-20T04:04:49;15.53;;;8.70;;
3922;SDS011;1976;51.694;6.256;2022-11-20T04:07:15;14.87;;;10.07;;
3922;SDS011;1976;51.694;6.256;2022-11-20T04:09:41;15.70;;;10.00;;
3922;SDS011;1976;51.694;6.256;2022-11-20T04:12:07;15.73;;;10.00;;
3922;SDS011;1976;51.694;6.256;2022-11-20T04:14:35;21.03;;;9.67;;
3922;SDS011;1976;51.694;6.256;2022-11-20T04:17:01;28.57;;;9.77;;
3922;SDS011;1976;51.694;6.256;2022-11-20T04:19:28;25.50;;;8.97;;
3922;SDS011;1976;51.694;6.256;2022-11-20T04:21:54;18.00;;;9.17;;
3922;SDS011;1976;51.694;6.256;2022-11-20T04:24:20;13.57;;;8.87;;
3922;SDS011;1976;51.694;6.256;2022-11-20T04:26:46;12.93;;;10.13;;
3922;SDS011;1976;51.694;6.256;2022-11-20T04:29:12;20.73;;;10.13;;
3922;SDS011;1976;51.694;6.256;2022-11-20T04:31:38;24.33;;;10.47;;
3922;SDS011;1976;51.694;6.256;2022-11-20T04:34:05;15.13;;;9.73;;
3922;SDS011;1976;51.694;6.256;2022-11-20T04:36:32;10.40;;;7.10;;
3922;SDS011;1976;51.694;6.256;2022-11-20T04:38:59;16.90;;;9.40;;
3922;SDS011;1976;51.694;6.256;2022-11-20T04:41:26;20.43;;;8.90;;
3922;SDS011;1976;51.694;6.256;2022-11-20T04:43:53;12.90;;;9.07;;
3922;SDS011;1976;51.694;6.256;2022-11-20T04:46:28;15.07;;;9.23;;
3922;SDS011;1976;51.694;6.256;2022-11-20T04:48:56;14.77;;;9.20;;
3922;SDS011;1976;51.694;6.256;2022-11-20T04:51:22;17.33;;;9.00;;
3922;SDS011;1976;51.694;6.256;2022-11-20T04:53:48;16.50;;;9.23;;
3922;SDS011;1976;51.694;6.256;2022-11-20T04:56:14;14.23;;;8.67;;
3922;SDS011;1976;51.694;6.256;2022-11-20T04:58:41;18.03;;;10.33;;
3922;SDS011;1976;51.694;6.256;2022-11-20T05:01:11;22.60;;;9.37;;
3922;SDS011;1976;51.694;6.256;2022-11-20T05:03:37;12.90;;;9.17;;
3922;SDS011;1976;51.694;6.256;2022-11-20T05:06:04;15.80;;;9.40;;
3922;SDS011;1976;51.694;6.256;2022-11-20T05:08:31;15.10;;;9.50;;
3922;SDS011;1976;51.694;6.256;2022-11-20T05:11:01;13.57;;;8.53;;
3922;SDS011;1976;51.694;6.256;2022-11-20T05:13:27;19.83;;;9.50;;
3922;SDS011;1976;51.694;6.256;2022-11-20T05:15:53;15.43;;;9.20;;
3922;SDS011;1976;51.694;6.256;2022-11-20T05:18:19;16.00;;;9.10;;
3922;SDS011;1976;51.694;6.256;2022-11-20T05:20:45;14.60;;;8.93;;
3922;SDS011;1976;51.694;6.256;2022-11-20T05:23:11;16.50;;;9.50;;
3922;SDS011;1976;51.694;6.256;2022-11-20T05:25:37;12.10;;;8.50;;
3922;SDS011;1976;51.694;6.256;2022-11-20T05:28:03;11.30;;;8.20;;
3922;SDS011;1976;51.694;6.256;2022-11-20T05:30:29;17.00;;;10.07;;
3922;SDS011;1976;51.694;6.256;2022-11-20T05:32:55;18.53;;;9.93;;
3922;SDS011;1976;51.694;6.256;2022-11-20T05:35:21;15.23;;;10.10;;
3922;SDS011;1976;51.694;6.256;2022-11-20T05:37:47;14.80;;;9.10;;
3922;SDS011;1976;51.694;6.256;2022-11-20T05:40:13;13.87;;;9.13;;
3922;SDS011;1976;51.694;6.256;2022-11-20T05:42:39;13.70;;;8.10;;
3922;SDS011;1976;51.694;6.256;2022-11-20T05:45:05;18.80;;;10.73;;
3922;SDS011;1976;51.694;6.256;2022-11-20T05:47:32;16.70;;;9.80;;
3922;SDS011;1976;51.694;6.256;2022-11-20T05:49:58;21.90;;;9.00;;
3922;SDS011;1976;51.694;6.256;2022-11-20T05:52:27;21.33;;;9.63;;
3922;SDS011;1976;51.694;6.256;2022-11-20T05:54:54;14.67;;;8.30;;
3922;SDS011;1976;51.694;6.256;2022-11-20T05:57:20;15.03;;;9.73;;
3922;SDS011;1976;51.694;6.256;2022-11-20T05:59:46;16.93;;;10.60;;
3922;SDS011;1976;51.694;6.256;2022-11-20T06:02:12;17.60;;;9.30;;
3922;SDS011;1976;51.694;6.256;2022-11-20T06:04:38;18.53;;;9.77;;
3922;SDS011;1976;51.694;6.256;2022-11-20T06:07:04;13.63;;;8.17;;
3922;SDS011;1976;51.694;6.256;2022-11-20T06:09:31;12.83;;;7.83;;
3922;SDS011;1976;51.694;6.256;2022-11-20T06:11:57;14.10;;;8.63;;
3922;SDS011;1976;51.694;6.256;2022-11-20T06:14:23;13.53;;;7.73;;
3922;SDS011;1976;51.694;6.256;2022-11-20T06:16:49;15.97;;;8.97;;
3922;SDS011;1976;51.694;6.256;2022-11-20T06:19:15;19.37;;;10.30;;
3922;SDS011;1976;51.694;6.256;2022-11-20T06:21:41;11.97;;;9.27;;
3922;SDS011;1976;51.694;6.256;2022-11-20T06:24:09;15.00;;;9.30;;
3922;SDS011;1976;51.694;6.256;2022-11-20T06:26:36;13.37;;;8.43;;
3922;SDS011;1976;51.694;6.256;2022-11-20T06:29:02;19.67;;;10.13;;
3922;SDS011;1976;51.694;6.256;2022-11-20T06:31:28;18.13;;;9.73;;
3922;SDS011;1976;51.694;6.256;2022-11-20T06:33:54;15.57;;;10.30;;
3922;SDS011;1976;51.694;6.256;2022-11-20T06:36:21;18.23;;;9.80;;
3922;SDS011;1976;51.694;6.256;2022-11-20T06:38:47;15.87;;;9.63;;
3922;SDS011;1976;51.694;6.256;2022-11-20T06:41:15;15.97;;;9.87;;
3922;SDS011;1976;51.694;6.256;2022-11-20T06:43:41;18.77;;;8.57;;
3922;SDS011;1976;51.694;6.256;2022-11-20T06:46:08;15.83;;;10.70;;
3922;SDS011;1976;51.694;6.256;2022-11-20T06:48:34;13.07;;;8.80;;
3922;SDS011;1976;51.694;6.256;2022-11-20T06:51:02;17.80;;;10.10;;
3922;SDS011;1976;51.694;6.256;2022-11-20T06:53:28;13.73;;;9.50;;
3922;SDS011;1976;51.694;6.256;2022-11-20T06:55:55;18.63;;;9.50;;
3922;SDS011;1976;51.694;6.256;2022-11-20T06:58:21;15.53;;;9.70;;
3922;SDS011;1976;51.694;6.256;2022-11-20T07:00:47;15.30;;;9.27;;
3922;SDS011;1976;51.694;6.256;2022-11-20T07:03:13;14.03;;;9.57;;
3922;SDS011;1976;51.694;6.256;2022-11-20T07:05:39;14.67;;;9.50;;
3922;SDS011;1976;51.694;6.256;2022-11-20T07:08:06;16.60;;;9.30;;
3922;SDS011;1976;51.694;6.256;2022-11-20T07:10:32;15.43;;;9.90;;
3922;SDS011;1976;51.694;6.256;2022-11-20T07:12:58;14.70;;;8.57;;
3922;SDS011;1976;51.694;6.256;2022-11-20T07:15:25;14.87;;;8.77;;
3922;SDS011;1976;51.694;6.256;2022-11-20T07:17:52;13.87;;;8.70;;
3922;SDS011;1976;51.694;6.256;2022-11-20T07:20:18;21.80;;;10.67;;
3922;SDS011;1976;51.694;6.256;2022-11-20T07:22:44;13.90;;;8.47;;
3922;SDS011;1976;51.694;6.256;2022-11-20T07:25:10;16.73;;;10.13;;
3922;SDS011;1976;51.694;6.256;2022-11-20T07:27:36;15.60;;;9.83;;
3922;SDS011;1976;51.694;6.256;2022-11-20T07:30:03;13.60;;;8.43;;
3922;SDS011;1976;51.694;6.256;2022-11-20T07:32:29;11.47;;;8.57;;
3922;SDS011;1976;51.694;6.256;2022-11-20T07:34:55;14.83;;;9.27;;
3922;SDS011;1976;51.694;6.256;2022-11-20T07:37:21;15.90;;;9.67;;
3922;SDS011;1976;51.694;6.256;2022-11-20T07:39:47;15.03;;;8.93;;
3922;SDS011;1976;51.694;6.256;2022-11-20T07:42:13;14.20;;;9.20;;
3922;SDS011;1976;51.694;6.256;2022-11-20T07:44:39;12.90;;;8.90;;
3922;SDS011;1976;51.694;6.256;2022-11-20T07:47:05;16.40;;;9.27;;
3922;SDS011;1976;51.694;6.256;2022-11-20T07:49:31;15.40;;;10.13;;
3922;SDS011;1976;51.694;6.256;2022-11-20T07:51:58;19.40;;;11.00;;
3922;SDS011;1976;51.694;6.256;2022-11-20T07:54:24;14.87;;;9.20;;
3922;SDS011;1976;51.694;6.256;2022-11-20T07:56:50;17.93;;;10.13;;
3922;SDS011;1976;51.694;6.256;2022-11-20T07:59:16;15.33;;;9.00;;
3922;SDS011;1976;51.694;6.256;2022-11-20T08:01:42;15.77;;;9.90;;
3922;SDS011;1976;51.694;6.256;2022-11-20T08:04:08;20.83;;;10.50;;
3922;SDS011;1976;51.694;6.256;2022-11-20T08:06:35;16.00;;;10.40;;
3922;SDS011;1976;51.694;6.256;2022-11-20T08:09:02;17.50;;;10.73;;
3922;SDS011;1976;51.694;6.256;2022-11-20T08:11:28;18.00;;;10.93;;
3922;SDS011;1976;51.694;6.256;2022-11-20T08:14:12;21.90;;;10.27;;
3922;SDS011;1976;51.694;6.256;2022-11-20T08:16:48;24.17;;;11.83;;
3922;SDS011;1976;51.694;6.256;2022-11-20T08:19:15;19.90;;;11.33;;
3922;SDS011;1976;51.694;6.256;2022-11-20T08:21:41;19.53;;;10.60;;
3922;SDS011;1976;51.694;6.256;2022-11-20T08:24:07;18.73;;;10.73;;
3922;SDS011;1976;51.694;6.256;2022-11-20T08:26:34;13.77;;;9.83;;
3922;SDS011;1976;51.694;6.256;2022-11-20T08:29:02;15.27;;;11.00;;
3922;SDS011;1976;51.694;6.256;2022-11-20T08:31:28;18.00;;;11.80;;
3922;SDS011;1976;51.694;6.256;2022-11-20T08:33:54;17.60;;;10.50;;
3922;SDS011;1976;51.694;6.256;2022-11-20T08:36:21;26.40;;;12.37;;
3922;SDS011;1976;51.694;6.256;2022-11-20T08:38:51;25.93;;;12.20;;
3922;SDS011;1976;51.694;6.256;2022-11-20T08:41:17;20.53;;;11.47;;
3922;SDS011;1976;51.694;6.256;2022-11-20T08:43:49;15.70;;;11.10;;
3922;SDS011;1976;51.694;6.256;2022-11-20T08:46:16;18.70;;;13.13;;
3922;SDS011;1976;51.694;6.256;2022-11-20T08:48:42;20.23;;;13.00;;
3922;SDS011;1976;51.694;6.256;2022-11-20T08:51:09;19.50;;;11.70;;
3922;SDS011;1976;51.694;6.256;2022-11-20T08:53:35;15.33;;;11.00;;
3922;SDS011;1976;51.694;6.256;2022-11-20T08:56:01;17.70;;;11.77;;
3922;SDS011;1976;51.694;6.256;2022-11-20T08:58:27;16.17;;;12.50;;
3922;SDS011;1976;51.694;6.256;2022-11-20T09:00:53;19.83;;;12.73;;
3922;SDS011;1976;51.694;6.256;2022-11-20T09:03:19;24.73;;;13.07;;
3922;SDS011;1976;51.694;6.256;2022-11-20T09:05:45;19.00;;;13.27;;
3922;SDS011;1976;51.694;6.256;2022-11-20T09:08:11;21.10;;;12.23;;
3922;SDS011;1976;51.694;6.256;2022-11-20T09:10:37;24.97;;;14.27;;
3922;SDS011;1976;51.694;6.256;2022-11-20T09:13:04;20.07;;;12.60;;
3922;SDS011;1976;51.694;6.256;2022-11-20T09:15:31;15.50;;;12.33;;
3922;SDS011;1976;51.694;6.256;2022-11-20T09:17:58;20.70;;;11.67;;
3922;SDS011;1976;51.694;6.256;2022-11-20T09:20:25;23.00;;;11.63;;
3922;SDS011;1976;51.694;6.256;2022-11-20T09:22:51;20.43;;;14.10;;
3922;SDS011;1976;51.694;6.256;2022-11-20T09:25:17;30.90;;;13.50;;
3922;SDS011;1976;51.694;6.256;2022-11-20T09:27:43;19.37;;;12.73;;
3922;SDS011;1976;51.694;6.256;2022-11-20T09:30:11;19.20;;;13.87;;
3922;SDS011;1976;51.694;6.256;2022-11-20T09:32:40;18.77;;;13.33;;
3922;SDS011;1976;51.694;6.256;2022-11-20T09:35:07;23.10;;;15.50;;
3922;SDS011;1976;51.694;6.256;2022-11-20T09:37:33;23.97;;;14.60;;
3922;SDS011;1976;51.694;6.256;2022-11-20T09:39:59;20.87;;;13.33;;
3922;SDS011;1976;51.694;6.256;2022-11-20T09:45:12;35.73;;;15.50;;
3922;SDS011;1976;51.694;6.256;2022-11-20T09:55:44;22.70;;;14.87;;
3922;SDS011;1976;51.694;6.256;2022-11-20T10:00:58;18.40;;;13.37;;
3922;SDS011;1976;51.694;6.256;2022-11-20T10:06:01;23.93;;;14.63;;
3922;SDS011;1976;51.694;6.256;2022-11-20T10:08:28;21.30;;;14.43;;
3922;SDS011;1976;51.694;6.256;2022-11-20T10:13:31;27.73;;;15.63;;
3922;SDS011;1976;51.694;6.256;2022-11-20T10:18:44;20.03;;;13.13;;
3922;SDS011;1976;51.694;6.256;2022-11-20T10:29:15;23.23;;;14.13;;
3922;SDS011;1976;51.694;6.256;2022-11-20T10:31:52;22.83;;;15.03;;
3922;SDS011;1976;51.694;6.256;2022-11-20T10:36:52;21.70;;;15.63;;
3922;SDS011;1976;51.694;6.256;2022-11-20T10:39:41;30.40;;;16.00;;
3922;SDS011;1976;51.694;6.256;2022-11-20T10:42:09;21.63;;;13.30;;
3922;SDS011;1976;51.694;6.256;2022-11-20T10:44:36;21.63;;;13.87;;
3922;SDS011;1976;51.694;6.256;2022-11-20T10:47:24;18.13;;;11.37;;
3922;SDS011;1976;51.694;6.256;2022-11-20T10:49:52;24.03;;;13.90;;
3922;SDS011;1976;51.694;6.256;2022-11-20T10:58:10;22.40;;;11.20;;
3922;SDS011;1976;51.694;6.256;2022-11-20T11:00:36;21.67;;;12.97;;
3922;SDS011;1976;51.694;6.256;2022-11-20T11:03:02;26.17;;;12.07;;
3922;SDS011;1976;51.694;6.256;2022-11-20T11:05:39;23.13;;;13.20;;
3922;SDS011;1976;51.694;6.256;2022-11-20T11:08:10;19.90;;;14.30;;
3922;SDS011;1976;51.694;6.256;2022-11-20T11:10:39;25.50;;;13.07;;
3922;SDS011;1976;51.694;6.256;2022-11-20T11:13:18;22.00;;;14.10;;
3922;SDS011;1976;51.694;6.256;2022-11-20T11:15:44;24.53;;;14.90;;
3922;SDS011;1976;51.694;6.256;2022-11-20T11:18:10;21.17;;;14.43;;
3922;SDS011;1976;51.694;6.256;2022-11-20T11:20:37;24.50;;;15.10;;
3922;SDS011;1976;51.694;6.256;2022-11-20T11:23:03;30.53;;;15.50;;
3922;SDS011;1976;51.694;6.256;2022-11-20T11:25:30;23.53;;;13.77;;
3922;SDS011;1976;51.694;6.256;2022-11-20T11:28:41;17.03;;;11.73;;
3922;SDS011;1976;51.694;6.256;2022-11-20T11:30:50;17.10;;;11.57;;
3922;SDS011;1976;51.694;6.256;2022-11-20T11:33:20;20.37;;;13.37;;
3922;SDS011;1976;51.694;6.256;2022-11-20T11:35:50;14.67;;;10.90;;
3922;SDS011;1976;51.694;6.256;2022-11-20T11:38:44;22.73;;;11.90;;
3922;SDS011;1976;51.694;6.256;2022-11-20T11:41:12;18.90;;;12.70;;
3922;SDS011;1976;51.694;6.256;2022-11-20T11:43:39;19.90;;;11.87;;
3922;SDS011;1976;51.694;6.256;2022-11-20T11:46:24;18.03;;;11.00;;
3922;SDS011;1976;51.694;6.256;2022-11-20T11:48:58;23.93;;;12.83;;
3922;SDS011;1976;51.694;6.256;2022-11-20T11:51:56;20.80;;;13.47;;
3922;SDS011;1976;51.694;6.256;2022-11-20T11:56:55;16.77;;;11.47;;
3922;SDS011;1976;51.694;6.256;2022-11-20T12:00:06;18.20;;;11.17;;
3922;SDS011;1976;51.694;6.256;2022-11-20T12:02:23;23.37;;;13.33;;
3922;SDS011;1976;51.694;6.256;2022-11-20T12:04:56;15.57;;;11.53;;
3922;SDS011;1976;51.694;6.256;2022-11-20T12:09:55;20.13;;;12.00;;
3922;SDS011;1976;51.694;6.256;2022-11-20T12:12:25;23.60;;;12.60;;
3922;SDS011;1976;51.694;6.256;2022-11-20T12:14:53;20.10;;;11.80;;
3922;SDS011;1976;51.694;6.256;2022-11-20T12:17:20;22.20;;;12.63;;
3922;SDS011;1976;51.694;6.256;2022-11-20T12:19:46;17.60;;;12.03;;
3922;SDS011;1976;51.694;6.256;2022-11-20T12:27:47;24.33;;;12.57;;
3922;SDS011;1976;51.694;6.256;2022-11-20T12:30:18;21.30;;;13.27;;
3922;SDS011;1976;51.694;6.256;2022-11-20T12:43:36;21.87;;;11.50;;
3922;SDS011;1976;51.694;6.256;2022-11-20T12:46:26;20.77;;;11.67;;
3922;SDS011;1976;51.694;6.256;2022-11-20T12:51:55;28.90;;;14.37;;
3922;SDS011;1976;51.694;6.256;2022-11-20T12:54:40;24.20;;;13.07;;
3922;SDS011;1976;51.694;6.256;2022-11-20T13:07:37;30.63;;;15.27;;
3922;SDS011;1976;51.694;6.256;2022-11-20T13:10:04;25.03;;;15.10;;
3922;SDS011;1976;51.694;6.256;2022-11-20T13:12:36;33.27;;;18.50;;
3922;SDS011;1976;51.694;6.256;2022-11-20T13:17:40;26.30;;;15.97;;
3922;SDS011;1976;51.694;6.256;2022-11-20T13:20:12;30.83;;;17.63;;
3922;SDS011;1976;51.694;6.256;2022-11-20T13:22:43;36.10;;;16.23;;
3922;SDS011;1976;51.694;6.256;2022-11-20T13:25:21;31.20;;;15.70;;
3922;SDS011;1976;51.694;6.256;2022-11-20T13:27:47;28.43;;;15.37;;
3922;SDS011;1976;51.694;6.256;2022-11-20T13:30:17;28.70;;;15.70;;
3922;SDS011;1976;51.694;6.256;2022-11-20T13:32:53;25.07;;;15.27;;
3922;SDS011;1976;51.694;6.256;2022-11-20T13:35:24;29.43;;;16.37;;
3922;SDS011;1976;51.694;6.256;2022-11-20T13:37:59;26.57;;;14.93;;
3922;SDS011;1976;51.694;6.256;2022-11-20T13:40:26;31.77;;;15.90;;
3922;SDS011;1976;51.694;6.256;2022-11-20T13:43:08;26.90;;;15.63;;
3922;SDS011;1976;51.694;6.256;2022-11-20T13:45:36;24.13;;;14.07;;
3922;SDS011;1976;51.694;6.256;2022-11-20T13:48:04;24.63;;;13.23;;
3922;SDS011;1976;51.694;6.256;2022-11-20T13:55:40;29.10;;;17.80;;
3922;SDS011;1976;51.694;6.256;2022-11-20T14:00:43;27.37;;;14.73;;
3922;SDS011;1976;51.694;6.256;2022-11-20T14:03:11;29.23;;;12.60;;
3922;SDS011;1976;51.694;6.256;2022-11-20T14:05:40;25.17;;;12.77;;
3922;SDS011;1976;51.694;6.256;2022-11-20T14:08:17;26.40;;;13.97;;
3922;SDS011;1976;51.694;6.256;2022-11-20T14:10:45;31.43;;;16.03;;
3922;SDS011;1976;51.694;6.256;2022-11-20T14:13:18;27.80;;;15.57;;
3922;SDS011;1976;51.694;6.256;2022-11-20T14:15:45;22.47;;;12.40;;
3922;SDS011;1976;51.694;6.256;2022-11-20T14:18:15;32.03;;;16.17;;
3922;SDS011;1976;51.694;6.256;2022-11-20T14:20:41;29.30;;;14.30;;
3922;SDS011;1976;51.694;6.256;2022-11-20T14:23:09;25.20;;;14.37;;
3922;SDS011;1976;51.694;6.256;2022-11-20T14:25:35;23.30;;;12.23;;
3922;SDS011;1976;51.694;6.256;2022-11-20T14:28:02;21.00;;;8.80;;
3922;SDS011;1976;51.694;6.256;2022-11-20T14:30:45;30.10;;;14.90;;
3922;SDS011;1976;51.694;6.256;2022-11-20T14:33:12;29.10;;;14.67;;
3922;SDS011;1976;51.694;6.256;2022-11-20T14:35:46;32.90;;;16.27;;
3922;SDS011;1976;51.694;6.256;2022-11-20T14:38:14;28.87;;;15.80;;
3922;SDS011;1976;51.694;6.256;2022-11-20T14:40:40;23.80;;;12.50;;
3922;SDS011;1976;51.694;6.256;2022-11-20T14:43:26;20.67;;;11.90;;
3922;SDS011;1976;51.694;6.256;2022-11-20T14:45:59;15.67;;;8.03;;
3922;SDS011;1976;51.694;6.256;2022-11-20T14:48:29;21.87;;;10.17;;
3922;SDS011;1976;51.694;6.256;2022-11-20T14:50:57;35.47;;;14.13;;
3922;SDS011;1976;51.694;6.256;2022-11-20T14:53:23;22.27;;;11.47;;
3922;SDS011;1976;51.694;6.256;2022-11-20T14:56:00;25.17;;;12.70;;
3922;SDS011;1976;51.694;6.256;2022-11-20T14:58:30;26.03;;;12.50;;
3922;SDS011;1976;51.694;6.256;2022-11-20T15:00:59;21.20;;;12.17;;
3922;SDS011;1976;51.694;6.256;2022-11-20T15:03:32;24.97;;;12.53;;
3922;SDS011;1976;51.694;6.256;2022-11-20T15:05:59;37.97;;;17.03;;
3922;SDS011;1976;51.694;6.256;2022-11-20T15:08:25;28.40;;;13.37;;
3922;SDS011;1976;51.694;6.256;2022-11-20T15:10:51;22.30;;;10.97;;
3922;SDS011;1976;51.694;6.256;2022-11-20T15:13:19;33.33;;;16.60;;
3922;SDS011;1976;51.694;6.256;2022-11-20T15:15:49;31.90;;;15.70;;
3922;SDS011;1976;51.694;6.256;2022-11-20T15:18:17;35.13;;;17.30;;
3922;SDS011;1976;51.694;6.256;2022-11-20T15:20:44;19.37;;;11.30;;
3922;SDS011;1976;51.694;6.256;2022-11-20T15:23:13;29.03;;;15.50;;
3922;SDS011;1976;51.694;6.256;2022-11-20T15:25:40;21.03;;;11.43;;
3922;SDS011;1976;51.694;6.256;2022-11-20T15:28:19;39.83;;;18.23;;
3922;SDS011;1976;51.694;6.256;2022-11-20T15:30:46;34.00;;;17.17;;
3922;SDS011;1976;51.694;6.256;2022-11-20T15:33:13;31.37;;;17.20;;
3922;SDS011;1976;51.694;6.256;2022-11-20T15:35:39;39.27;;;18.50;;
3922;SDS011;1976;51.694;6.256;2022-11-20T15:38:05;42.13;;;18.83;;
3922;SDS011;1976;51.694;6.256;2022-11-20T15:40:31;41.87;;;18.30;;
3922;SDS011;1976;51.694;6.256;2022-11-20T15:42:58;37.20;;;18.90;;
3922;SDS011;1976;51.694;6.256;2022-11-20T15:48:04;39.10;;;18.07;;
3922;SDS011;1976;51.694;6.256;2022-11-20T15:50:36;37.00;;;17.87;;
3922;SDS011;1976;51.694;6.256;2022-11-20T15:53:02;31.20;;;16.07;;
3922;SDS011;1976;51.694;6.256;2022-11-20T15:55:28;35.40;;;17.97;;
3922;SDS011;1976;51.694;6.256;2022-11-20T15:57:54;36.17;;;17.77;;
3922;SDS011;1976;51.694;6.256;2022-11-20T16:00:20;32.77;;;16.53;;
3922;SDS011;1976;51.694;6.256;2022-11-20T16:02:46;34.53;;;17.40;;
3922;SDS011;1976;51.694;6.256;2022-11-20T16:05:12;32.07;;;16.30;;
3922;SDS011;1976;51.694;6.256;2022-11-20T16:07:39;35.33;;;14.57;;
3922;SDS011;1976;51.694;6.256;2022-11-20T16:10:05;26.90;;;15.17;;
3922;SDS011;1976;51.694;6.256;2022-11-20T16:12:31;36.57;;;17.47;;
3922;SDS011;1976;51.694;6.256;2022-11-20T16:15:23;31.87;;;16.60;;
3922;SDS011;1976;51.694;6.256;2022-11-20T16:18:08;34.90;;;17.60;;
3922;SDS011;1976;51.694;6.256;2022-11-20T16:20:36;37.17;;;10.80;;
3922;SDS011;1976;51.694;6.256;2022-11-20T16:23:02;15.10;;;9.60;;
3922;SDS011;1976;51.694;6.256;2022-11-20T16:25:28;16.43;;;8.57;;
3922;SDS011;1976;51.694;6.256;2022-11-20T16:27:54;13.37;;;6.33;;
3922;SDS011;1976;51.694;6.256;2022-11-20T16:30:20;23.17;;;10.23;;
3922;SDS011;1976;51.694;6.256;2022-11-20T16:32:47;14.03;;;7.97;;